ROZK1: Pawnee R Nr Rozel, KS

Data processed at Wed May 22 2019 23:50


All information presented herein is the property of the government of the United States of America and may be revised or deleted at any time without prior notice.
Dissemination of this information without the expressed written consent of the Public Affairs Office, Tulsa District U.S. Army Corps of Engineers is strictly prohibited.
These data are gathered electronically and, as presented, have not undergone any form of quality control. These data are not guaranteed to be valid or correct.
Go to home page.
Go to station list.
Go to home page.

Upstream stations:

Downstream station:
Previous Day
Next Day
Current Day
    
SHEF ID:       ROZK1     PAWNEE R AT ROZEL, KS
STATION TYPE:  

               PRECIP     STAGE  STAGE(2)  RIV-FLOW  BAT-LOAD
                   in        ft        ft       cfs      volt
              Ccp-Rev   Ccp-Rev   Ccp-Rev   Ccp-Rev   Ccp-Rev
(US/Central)
05/22 00:00      0.00     24.13      ----      1558     13.00
05/22 01:00      0.00     24.34      ----      1594     13.00
05/22 02:00      0.00     24.57      ----      1633     12.95
05/22 03:00      0.00     24.77      ----      1668     12.89
05/22 04:00      0.00     24.95      ----      1699     12.89
05/22 05:00      0.00     25.14      ----      1733     12.89
05/22 06:00      0.00     25.32      ----      1765     12.89
05/22 07:00      0.00     25.50      ----      1798     12.83
05/22 08:00      0.00     25.68      ----      1830     12.83
05/22 09:00      0.00     25.81      ----      1854     12.89
05/22 10:00      0.00     25.96      ----      1882     13.00
05/22 11:00      0.00     26.10      ----      1908     13.42
05/22 12:00      0.00     26.22      ----      1930     13.53
05/22 13:00      0.00     26.33      ----      1951     13.65
05/22 14:00      0.00     26.41      ----      1966     13.71
05/22 15:00      0.00     26.50      ----      1983     13.94
05/22 16:00      0.00     26.55      ----      1993     14.18
05/22 17:00      0.00     26.60      ----      2002     14.18
05/22 18:00      0.00     26.63      ----      2008     14.06
05/22 19:00      0.00     26.67      ----      2015     13.83
05/22 20:00      0.00     26.68      ----      2017     13.36
05/22 21:00      0.00     26.69      ----      2019     13.12
05/22 22:00      0.00     26.69      ----      2019     13.07
05/22 23:00      0.00     26.68      ----      2017     13.00